TimeCST,TemperatureF,Dew PointF,Humidity,Sea Level PressureIn,VisibilityMPH,Wind Direction,Wind SpeedMPH,Gust SpeedMPH,PrecipitationIn,Events,Conditions,WindDirDegrees,DateUTC
12:12 AM,27.1,19.4,73,30.44,10.0,Calm,Calm,-,N/A,,Clear,0,2012-11-16 06:12:00
12:32 AM,25.9,18.7,74,30.44,10.0,Calm,Calm,-,N/A,,Clear,0,2012-11-16 06:32:00
12:52 AM,25.0,17.4,73,30.45,10.0,Calm,Calm,-,N/A,,Clear,0,2012-11-16 06:52:00
1:12 AM,27.0,15.8,63,30.45,10.0,Calm,Calm,-,N/A,,Clear,0,2012-11-16 07:12:00
1:32 AM,24.3,17.6,76,30.45,10.0,Calm,Calm,-,N/A,,Clear,0,2012-11-16 07:32:00
1:52 AM,23.7,18.5,80,30.46,10.0,Calm,Calm,-,N/A,,Clear,0,2012-11-16 07:52:00
2:12 AM,24.1,17.6,76,30.46,10.0,Calm,Calm,-,N/A,,Clear,0,2012-11-16 08:12:00
2:32 AM,23.9,17.4,76,30.46,10.0,Calm,Calm,-,N/A,,Clear,0,2012-11-16 08:32:00
2:53 AM,23.9,17.4,76,30.46,10.0,Calm,Calm,-,N/A,,Clear,0,2012-11-16 08:53:00
3:12 AM,23.4,18.1,80,30.46,10.0,Calm,Calm,-,N/A,,Clear,0,2012-11-16 09:12:00
3:32 AM,23.7,16.2,73,30.45,10.0,Calm,Calm,-,N/A,,Clear,0,2012-11-16 09:32:00
3:53 AM,21.6,16.9,82,30.45,10.0,Calm,Calm,-,N/A,,Clear,0,2012-11-16 09:53:00
4:12 AM,21.2,16.7,83,30.45,10.0,Calm,Calm,-,N/A,,Clear,0,2012-11-16 10:12:00
4:32 AM,20.8,16.3,83,30.45,10.0,Calm,Calm,-,N/A,,Clear,0,2012-11-16 10:32:00
4:52 AM,21.4,16.3,81,30.45,10.0,Calm,Calm,-,N/A,,Clear,0,2012-11-16 10:52:00
5:13 AM,19.9,16.2,85,30.45,10.0,Calm,Calm,-,N/A,,Clear,0,2012-11-16 11:13:00
5:32 AM,18.9,15.3,86,30.45,10.0,Calm,Calm,-,N/A,,Clear,0,2012-11-16 11:32:00
5:52 AM,18.0,14.2,85,30.45,10.0,Calm,Calm,-,N/A,,Clear,0,2012-11-16 11:52:00
6:13 AM,19.2,15.4,85,30.44,10.0,Calm,Calm,-,N/A,,Clear,0,2012-11-16 12:13:00
6:32 AM,18.9,15.3,86,30.44,10.0,Calm,Calm,-,N/A,,Clear,0,2012-11-16 12:32:00
6:52 AM,16.9,13.5,86,30.45,10.0,Calm,Calm,-,N/A,,Clear,0,2012-11-16 12:52:00
7:13 AM,18.3,14.9,86,30.45,10.0,SSW,3.5,-,N/A,,Clear,200,2012-11-16 13:13:00
7:32 AM,18.9,14.7,84,30.46,10.0,Calm,Calm,-,N/A,,Clear,0,2012-11-16 13:32:00
7:52 AM,19.0,15.3,85,30.45,10.0,Calm,Calm,-,N/A,,Clear,0,2012-11-16 13:52:00
8:13 AM,20.8,16.9,85,30.46,10.0,Calm,Calm,-,N/A,,Clear,0,2012-11-16 14:13:00
8:32 AM,23.0,18.1,82,30.46,10.0,Calm,Calm,-,N/A,,Clear,0,2012-11-16 14:32:00
8:52 AM,24.8,18.7,78,30.47,10.0,Calm,Calm,-,N/A,,Clear,0,2012-11-16 14:52:00
9:12 AM,27.1,18.9,71,30.47,10.0,Calm,Calm,-,N/A,,Clear,0,2012-11-16 15:12:00
9:32 AM,28.8,20.3,71,30.47,10.0,Calm,Calm,-,N/A,,Clear,0,2012-11-16 15:32:00
9:52 AM,30.9,21.4,68,30.47,10.0,Calm,Calm,-,N/A,,Clear,0,2012-11-16 15:52:00
10:12 AM,32.7,23.2,68,30.47,10.0,Calm,Calm,-,N/A,,Clear,0,2012-11-16 16:12:00
10:32 AM,36.5,22.5,57,30.46,10.0,SSE,4.6,-,N/A,,Clear,150,2012-11-16 16:32:00
10:52 AM,38.1,22.8,54,30.46,10.0,SE,5.8,-,N/A,,Clear,140,2012-11-16 16:52:00
11:12 AM,39.4,22.5,51,30.46,10.0,Calm,Calm,-,N/A,,Clear,0,2012-11-16 17:12:00
11:32 AM,40.1,21.7,48,30.45,10.0,Calm,Calm,-,N/A,,Clear,0,2012-11-16 17:32:00
11:52 AM,41.0,21.2,45,30.45,10.0,SW,3.5,-,N/A,,Clear,220,2012-11-16 17:52:00
12:12 PM,41.5,21.2,44,30.45,10.0,Calm,Calm,-,N/A,,Clear,0,2012-11-16 18:12:00
12:32 PM,42.6,21.0,42,30.44,10.0,Calm,Calm,-,N/A,,Clear,0,2012-11-16 18:32:00
12:53 PM,43.5,20.7,40,30.42,10.0,SSW,3.5,-,N/A,,Clear,200,2012-11-16 18:53:00
1:12 PM,44.1,20.1,39,30.41,10.0,SSE,4.6,-,N/A,,Clear,150,2012-11-16 19:12:00
1:32 PM,44.8,20.1,37,30.41,10.0,SSW,4.6,-,N/A,,Clear,200,2012-11-16 19:32:00
1:53 PM,45.1,18.7,35,30.40,10.0,Calm,Calm,-,N/A,,Clear,0,2012-11-16 19:53:00
2:12 PM,45.9,19.6,35,30.40,10.0,SSW,4.6,-,N/A,,Clear,210,2012-11-16 20:12:00
2:33 PM,46.0,19.9,35,30.39,10.0,South,3.5,-,N/A,,Clear,180,2012-11-16 20:33:00
2:52 PM,45.9,19.0,34,30.38,10.0,South,6.9,-,N/A,,Clear,170,2012-11-16 20:52:00
3:12 PM,45.9,20.3,36,30.38,10.0,SSE,8.1,-,N/A,,Clear,160,2012-11-16 21:12:00
3:33 PM,45.5,21.2,38,30.38,10.0,SSE,5.8,-,N/A,,Clear,160,2012-11-16 21:33:00
3:52 PM,45.1,21.4,39,30.37,10.0,SSE,6.9,-,N/A,,Clear,160,2012-11-16 21:52:00
4:12 PM,44.6,21.9,41,30.36,10.0,SE,5.8,-,N/A,,Clear,140,2012-11-16 22:12:00
4:33 PM,43.0,22.1,44,30.35,10.0,SE,4.6,-,N/A,,Clear,140,2012-11-16 22:33:00
4:52 PM,42.1,22.1,45,30.35,10.0,SE,3.5,-,N/A,,Clear,140,2012-11-16 22:52:00
5:12 PM,41.0,22.1,47,30.35,10.0,SE,4.6,-,N/A,,Clear,140,2012-11-16 23:12:00
5:33 PM,38.8,22.6,52,30.35,10.0,SE,3.5,-,N/A,,Clear,130,2012-11-16 23:33:00
5:52 PM,38.7,22.8,53,30.34,10.0,ESE,3.5,-,N/A,,Clear,120,2012-11-16 23:52:00
6:12 PM,35.8,23.5,61,30.34,10.0,Calm,Calm,-,N/A,,Clear,0,2012-11-17 00:12:00
6:33 PM,34.7,23.4,63,30.34,10.0,Calm,Calm,-,N/A,,Clear,0,2012-11-17 00:33:00
6:52 PM,32.4,23.7,70,30.33,10.0,Calm,Calm,-,N/A,,Clear,0,2012-11-17 00:52:00
7:12 PM,34.9,23.5,63,30.33,10.0,Calm,Calm,-,N/A,,Clear,0,2012-11-17 01:12:00
7:52 PM,31.3,24.4,76,30.33,10.0,Calm,Calm,-,N/A,,Clear,0,2012-11-17 01:52:00
8:13 PM,31.8,24.4,74,30.32,10.0,Calm,Calm,-,N/A,,Clear,0,2012-11-17 02:13:00
8:32 PM,34.0,25.3,71,30.32,10.0,South,4.6,-,N/A,,Clear,170,2012-11-17 02:32:00
8:52 PM,29.5,23.9,80,30.33,10.0,Calm,Calm,-,N/A,,Clear,0,2012-11-17 02:52:00
9:13 PM,33.4,25.5,73,30.33,10.0,Calm,Calm,-,N/A,,Clear,0,2012-11-17 03:13:00
9:32 PM,33.4,26.4,75,30.33,10.0,South,5.8,-,N/A,,Clear,170,2012-11-17 03:32:00
9:53 PM,34.9,27.1,73,30.32,10.0,South,4.6,-,N/A,,Clear,180,2012-11-17 03:53:00
10:12 PM,37.2,28.2,70,30.33,10.0,South,5.8,-,N/A,,Clear,190,2012-11-17 04:12:00
10:32 PM,34.7,27.5,75,30.33,10.0,South,5.8,-,N/A,,Clear,190,2012-11-17 04:32:00
10:53 PM,37.0,28.8,72,30.32,10.0,South,8.1,-,N/A,,Clear,180,2012-11-17 04:53:00
11:12 PM,37.9,29.3,71,30.32,10.0,South,9.2,-,N/A,,Clear,180,2012-11-17 05:12:00
11:32 PM,37.9,29.8,73,30.32,10.0,South,6.9,-,N/A,,Clear,180,2012-11-17 05:32:00
11:53 PM,35.8,29.3,77,30.33,10.0,South,4.6,-,N/A,,Clear,190,2012-11-17 05:53:00